Elsa — WDB7862 — position and weather

sailwx.info

Track history (hours):
 
Tides and Currents Weather Stations Pressure Air Temp Water Temp Dewpoint Dewpoint Depression Visibility Wind Speed Wind Dir Waves Ship Positions

Elsa

Owner: GP RESOURCES INC., TERMINAL ISLAND, CA. More information available from US FCC via Universal Licensing System and Coast Guard Vessel Documentation Center.

Last reported at 2014-Oct-27 04:33 UTC. Time now 2014-Oct-31 12:21 UTC.
Position N 33°44' W 118°14'.

Length 18 m.

Type: Tug. MMSI: 366949020.

Date/timePositionNaut miles runAvg speedWind from/ knotsBaromVisibWave heightAir tempDewpointWater temp
2014-Oct-27 04:33N 33°44' W 118°14'3 2.7
2014-Oct-27 03:33N 33°46' W 118°13'0 0.0
2014-Oct-27 02:33N 33°46' W 118°13'0 0.0
2014-Oct-27 01:33N 33°46' W 118°13'3 2.8
2014-Oct-27 00:33N 33°44' W 118°11'2 0.4
2014-Oct-26 20:33N 33°44' W 118°09'3 2.9
2014-Oct-26 19:30N 33°43' W 118°13'0 0.0
2014-Oct-26 18:33N 33°43' W 118°13'3 0.6
2014-Oct-26 14:32N 33°44' W 118°16'0 0.0
2014-Oct-26 13:21N 33°44' W 118°16'0 0.0
2014-Oct-26 12:15N 33°44' W 118°16'0 0.0
2014-Oct-25 21:33N 33°44' W 118°16'4 3.6
2014-Oct-25 20:32N 33°44' W 118°12'2 1.6
2014-Oct-25 19:33N 33°44' W 118°10'0 0.0
2014-Oct-25 18:34N 33°44' W 118°10'0 0.0
2014-Oct-25 17:18N 33°44' W 118°10'2 3.0
2014-Oct-25 16:33N 33°43' W 118°12'3 0.3
2014-Oct-25 05:33N 33°44' W 118°16'0 0.1
2014-Oct-25 02:33N 33°44' W 118°16'2 2.3
2014-Oct-25 01:33N 33°44' W 118°13'0 0.0
2014-Oct-25 00:33N 33°44' W 118°13'2 2.4
2014-Oct-24 23:33N 33°43' W 118°16'0 0.2
2014-Oct-24 22:33N 33°43' W 118°16'0 0.0
2014-Oct-24 21:33N 33°43' W 118°16'0 0.1
2014-Oct-24 20:33N 33°43' W 118°16'0 0.4
2014-Oct-24 19:33N 33°43' W 118°16'0 0.1
2014-Oct-24 18:33N 33°43' W 118°16'1 1.3
2014-Oct-24 17:33N 33°44' W 118°16'  
2014-Oct-22 03:33N 33°43' W 118°13'0 0.2
2014-Oct-22 02:33N 33°44' W 118°13'0 0.0
2014-Oct-22 01:33N 33°44' W 118°13'0 0.5
2014-Oct-22 00:33N 33°44' W 118°14'0 0.0
2014-Oct-21 23:33N 33°44' W 118°14'0 0.0
2014-Oct-21 22:33N 33°44' W 118°14'0 0.0
2014-Oct-21 00:33N 33°44' W 118°13'0 0.4
2014-Oct-20 23:33N 33°44' W 118°13'0 0.0
2014-Oct-20 22:33N 33°44' W 118°13'1 0.6
2014-Oct-20 21:30N 33°44' W 118°13'2 2.0
2014-Oct-20 20:33N 33°44' W 118°10'0 0.0
2014-Oct-20 19:33N 33°44' W 118°10'1 0.8
2014-Oct-20 18:33N 33°44' W 118°09'0 0.0
2014-Oct-20 17:33N 33°44' W 118°09'0 0.0
2014-Oct-20 16:33N 33°44' W 118°09'0 0.0
2014-Oct-20 15:33N 33°44' W 118°09'3 3.2
2014-Oct-20 14:33N 33°43' W 118°13'  
Track history (hours):
 
Tides and Currents Weather Stations Pressure Air Temp Water Temp Dewpoint Dewpoint Depression Visibility Wind Speed Wind Dir Waves Ship Positions

Elsa

Owner: GP RESOURCES INC., TERMINAL ISLAND, CA. More information available from US FCC via Universal Licensing System and Coast Guard Vessel Documentation Center.

Last reported at 2014-Oct-27 04:33 UTC. Time now 2014-Oct-31 12:21 UTC.
Position N 33°44' W 118°14'.

Length 18 m.

Type: Tug. MMSI: 366949020.

Date/timePositionNaut miles runAvg speedWind from/ knotsBaromVisibWave heightAir tempDewpointWater temp
2014-Oct-27 04:33N 33°44' W 118°14'3 2.7
2014-Oct-27 03:33N 33°46' W 118°13'0 0.0
2014-Oct-27 02:33N 33°46' W 118°13'0 0.0
2014-Oct-27 01:33N 33°46' W 118°13'3 2.8
2014-Oct-27 00:33N 33°44' W 118°11'2 0.4
2014-Oct-26 20:33N 33°44' W 118°09'3 2.9
2014-Oct-26 19:30N 33°43' W 118°13'0 0.0
2014-Oct-26 18:33N 33°43' W 118°13'3 0.6
2014-Oct-26 14:32N 33°44' W 118°16'0 0.0
2014-Oct-26 13:21N 33°44' W 118°16'0 0.0
2014-Oct-26 12:15N 33°44' W 118°16'0 0.0
2014-Oct-25 21:33N 33°44' W 118°16'4 3.6
2014-Oct-25 20:32N 33°44' W 118°12'2 1.6
2014-Oct-25 19:33N 33°44' W 118°10'0 0.0
2014-Oct-25 18:34N 33°44' W 118°10'0 0.0
2014-Oct-25 17:18N 33°44' W 118°10'2 3.0
2014-Oct-25 16:33N 33°43' W 118°12'3 0.3
2014-Oct-25 05:33N 33°44' W 118°16'0 0.1
2014-Oct-25 02:33N 33°44' W 118°16'2 2.3
2014-Oct-25 01:33N 33°44' W 118°13'0 0.0
2014-Oct-25 00:33N 33°44' W 118°13'2 2.4
2014-Oct-24 23:33N 33°43' W 118°16'0 0.2
2014-Oct-24 22:33N 33°43' W 118°16'0 0.0
2014-Oct-24 21:33N 33°43' W 118°16'0 0.1
2014-Oct-24 20:33N 33°43' W 118°16'0 0.4
2014-Oct-24 19:33N 33°43' W 118°16'0 0.1
2014-Oct-24 18:33N 33°43' W 118°16'1 1.3
2014-Oct-24 17:33N 33°44' W 118°16'  
2014-Oct-22 03:33N 33°43' W 118°13'0 0.2
2014-Oct-22 02:33N 33°44' W 118°13'0 0.0
2014-Oct-22 01:33N 33°44' W 118°13'0 0.5
2014-Oct-22 00:33N 33°44' W 118°14'0 0.0
2014-Oct-21 23:33N 33°44' W 118°14'0 0.0
2014-Oct-21 22:33N 33°44' W 118°14'0 0.0
2014-Oct-21 00:33N 33°44' W 118°13'0 0.4
2014-Oct-20 23:33N 33°44' W 118°13'0 0.0
2014-Oct-20 22:33N 33°44' W 118°13'1 0.6
2014-Oct-20 21:30N 33°44' W 118°13'2 2.0
2014-Oct-20 20:33N 33°44' W 118°10'0 0.0
2014-Oct-20 19:33N 33°44' W 118°10'1 0.8
2014-Oct-20 18:33N 33°44' W 118°09'0 0.0
2014-Oct-20 17:33N 33°44' W 118°09'0 0.0
2014-Oct-20 16:33N 33°44' W 118°09'0 0.0
2014-Oct-20 15:33N 33°44' W 118°09'3 3.2
2014-Oct-20 14:33N 33°43' W 118°13'  

Dump ship's entire track history